createdAt,value
2023-05-17T00:01:50.953Z,15.76
2023-05-17T00:04:18.591Z,15.60
2023-05-17T00:06:46.144Z,15.62
2023-05-17T00:09:13.765Z,15.82
2023-05-17T00:11:41.304Z,15.65
2023-05-17T00:14:08.871Z,15.51
2023-05-17T00:16:36.386Z,15.44
2023-05-17T00:19:03.993Z,15.43
2023-05-17T00:21:31.715Z,15.46
2023-05-17T00:23:59.157Z,15.42
2023-05-17T00:26:26.669Z,15.30
2023-05-17T00:28:54.328Z,15.37
2023-05-17T00:31:21.916Z,15.27
2023-05-17T00:33:49.396Z,15.34
2023-05-17T00:36:16.907Z,15.29
2023-05-17T00:38:44.401Z,15.18
2023-05-17T00:41:13.104Z,15.57
2023-05-17T00:43:40.991Z,15.53
2023-05-17T00:46:08.723Z,15.45
2023-05-17T00:48:36.619Z,15.48
2023-05-17T00:51:04.367Z,15.49
2023-05-17T00:53:32.227Z,15.40
2023-05-17T00:56:00.766Z,15.32
2023-05-17T00:58:28.525Z,15.35
2023-05-17T01:00:56.507Z,15.43
2023-05-17T01:03:24.165Z,15.60
2023-05-17T01:05:52.139Z,15.58
2023-05-17T01:08:19.673Z,15.80
2023-05-17T01:11:43.997Z,15.99
2023-05-17T01:14:34.464Z,15.91
2023-05-17T01:17:17.939Z,15.69
2023-05-17T01:20:19.161Z,15.66
2023-05-17T01:23:14.181Z,15.67
2023-05-17T01:25:48.953Z,15.68
2023-05-17T01:28:18.488Z,15.69
2023-05-17T01:30:50.442Z,15.72
2023-05-17T01:33:21.026Z,15.67
2023-05-17T01:35:48.609Z,15.69
2023-05-17T01:38:16.117Z,15.64
2023-05-17T01:41:00.610Z,15.74
2023-05-17T01:44:08.065Z,15.56
2023-05-17T01:46:41.687Z,15.37
2023-05-17T01:49:21.808Z,15.34
2023-05-17T01:51:59.205Z,15.33
2023-05-17T01:54:36.799Z,15.27
2023-05-17T01:57:07.780Z,15.30
2023-05-17T01:59:39.000Z,15.19
2023-05-17T02:02:08.927Z,15.14
2023-05-17T02:04:37.429Z,15.04
2023-05-17T02:07:05.131Z,14.96
2023-05-17T02:09:32.675Z,14.90
2023-05-17T02:12:00.213Z,14.79
2023-05-17T02:14:27.758Z,14.77
2023-05-17T02:16:55.285Z,14.93
2023-05-17T02:19:22.793Z,14.77
2023-05-17T02:21:50.385Z,14.76
2023-05-17T02:24:17.861Z,14.85
2023-05-17T02:26:46.500Z,14.87
2023-05-17T02:29:14.198Z,15.02
2023-05-17T02:31:41.748Z,14.94
2023-05-17T02:34:09.318Z,15.03
2023-05-17T02:36:36.881Z,15.08
2023-05-17T02:39:05.639Z,14.92
2023-05-17T02:41:33.189Z,14.87
2023-05-17T02:44:01.195Z,14.97
2023-05-17T02:46:28.743Z,14.90
2023-05-17T02:48:56.305Z,14.97
2023-05-17T02:51:23.886Z,14.83
2023-05-17T02:53:51.692Z,14.85
2023-05-17T02:56:19.698Z,14.80
2023-05-17T02:58:47.163Z,14.74
2023-05-17T03:01:14.872Z,14.65
2023-05-17T03:03:43.635Z,14.58
2023-05-17T03:06:11.704Z,14.68
2023-05-17T03:08:40.298Z,14.66
2023-05-17T03:11:08.549Z,14.74
2023-05-17T03:13:36.227Z,14.71
2023-05-17T03:16:03.882Z,14.72
2023-05-17T03:18:31.883Z,14.76
2023-05-17T03:20:59.681Z,14.91
2023-05-17T03:23:27.403Z,14.90
2023-05-17T03:26:00.671Z,15.07
2023-05-17T03:28:31.417Z,15.04
2023-05-17T03:30:59.929Z,15.07
2023-05-17T03:33:30.957Z,14.92
2023-05-17T03:35:59.331Z,14.82
2023-05-17T03:38:26.758Z,15.23
2023-05-17T03:40:54.451Z,14.95
2023-05-17T03:43:22.023Z,15.37
2023-05-17T03:45:50.148Z,15.77
2023-05-17T03:48:19.099Z,15.83
2023-05-17T03:50:46.718Z,15.41
2023-05-17T03:53:14.480Z,14.83
2023-05-17T03:55:42.427Z,14.50
2023-05-17T03:58:10.376Z,14.37
2023-05-17T04:00:38.013Z,14.61
2023-05-17T04:03:13.065Z,15.03
2023-05-17T04:05:45.657Z,14.67
2023-05-17T04:08:14.071Z,14.64
2023-05-17T04:10:44.847Z,15.21
2023-05-17T04:13:12.379Z,14.95
2023-05-17T04:15:39.981Z,15.11
2023-05-17T04:18:08.817Z,14.98
2023-05-17T04:20:36.363Z,14.78
2023-05-17T04:23:04.140Z,15.08
2023-05-17T04:25:34.276Z,15.12
2023-05-17T04:28:04.128Z,15.13
2023-05-17T04:30:32.600Z,15.18
2023-05-17T04:33:01.196Z,15.57
2023-05-17T04:35:29.170Z,15.79
2023-05-17T04:37:57.195Z,15.82
2023-05-17T04:40:24.802Z,15.31
2023-05-17T04:42:52.654Z,15.04
2023-05-17T04:45:29.920Z,14.91
2023-05-17T04:47:57.700Z,15.02
2023-05-17T04:50:28.654Z,15.07
2023-05-17T04:52:56.420Z,15.39
2023-05-17T04:55:24.258Z,15.39
2023-05-17T04:57:52.467Z,15.70
2023-05-17T05:00:22.976Z,15.66
2023-05-17T05:02:58.452Z,15.78
2023-05-17T05:05:26.736Z,15.63
2023-05-17T05:07:54.591Z,15.45
2023-05-17T05:10:26.126Z,15.69
2023-05-17T05:12:55.039Z,15.93
2023-05-17T05:15:23.978Z,15.74
2023-05-17T05:17:56.867Z,16.26
2023-05-17T05:20:28.196Z,16.16
2023-05-17T05:22:58.590Z,15.74
2023-05-17T05:25:28.039Z,15.71
2023-05-17T05:27:55.925Z,15.75
2023-05-17T05:30:23.521Z,16.00
2023-05-17T05:32:55.451Z,16.15
2023-05-17T05:35:30.373Z,16.31
2023-05-17T05:37:59.333Z,16.37
2023-05-17T05:40:30.290Z,16.40
2023-05-17T05:42:58.070Z,16.35
2023-05-17T05:45:25.624Z,16.62
2023-05-17T05:47:55.521Z,16.55
2023-05-17T05:50:23.067Z,16.62
2023-05-17T05:53:18.954Z,16.78
2023-05-17T05:55:56.997Z,17.16
2023-05-17T05:58:24.704Z,17.33
2023-05-17T06:00:57.314Z,17.32
2023-05-17T06:03:25.560Z,17.29
2023-05-17T06:05:53.167Z,17.64
2023-05-17T06:08:20.991Z,17.97
2023-05-17T06:10:48.535Z,17.92
2023-05-17T06:13:16.006Z,18.08
2023-05-17T06:15:43.509Z,18.24
2023-05-17T06:18:11.178Z,18.23
2023-05-17T06:20:38.731Z,18.06
2023-05-17T06:23:06.749Z,18.19
2023-05-17T06:25:34.268Z,18.57
2023-05-17T06:28:03.208Z,18.41
2023-05-17T06:30:31.567Z,18.33
2023-05-17T06:32:59.468Z,18.39
2023-05-17T06:35:27.290Z,18.43
2023-05-17T06:37:55.018Z,18.48
2023-05-17T06:40:22.813Z,18.57
2023-05-17T06:42:50.405Z,18.60
2023-05-17T06:45:17.971Z,18.85
2023-05-17T06:47:45.667Z,18.60
2023-05-17T06:50:13.289Z,18.95
2023-05-17T06:52:40.852Z,18.76
2023-05-17T06:55:09.991Z,18.65
2023-05-17T06:57:38.127Z,18.60
2023-05-17T07:00:11.173Z,18.46
2023-05-17T07:02:39.059Z,18.49
2023-05-17T07:05:07.790Z,18.29
2023-05-17T07:07:35.728Z,18.31
2023-05-17T07:10:04.081Z,18.63
2023-05-17T07:12:31.746Z,18.64
2023-05-17T07:14:59.373Z,18.57
2023-05-17T07:17:26.953Z,18.49
2023-05-17T07:19:54.732Z,18.84
2023-05-17T07:22:22.729Z,18.74
2023-05-17T07:24:51.068Z,18.28
2023-05-17T07:27:18.624Z,18.41
2023-05-17T07:29:46.178Z,18.10
2023-05-17T07:32:13.966Z,18.24
2023-05-17T07:34:41.667Z,18.24
2023-05-17T07:37:09.232Z,18.51
2023-05-17T07:39:36.776Z,18.52
2023-05-17T07:42:05.657Z,18.61
2023-05-17T07:44:33.581Z,18.50
2023-05-17T07:47:01.155Z,18.53
2023-05-17T07:49:28.948Z,18.40
2023-05-17T07:51:58.717Z,18.26
2023-05-17T07:54:27.676Z,18.52
2023-05-17T07:56:55.733Z,18.20
2023-05-17T07:59:24.139Z,18.67
2023-05-17T08:01:52.440Z,18.66
2023-05-17T08:04:20.087Z,18.93
2023-05-17T08:06:48.502Z,18.62
2023-05-17T08:09:16.820Z,18.34
2023-05-17T08:11:46.184Z,18.29
2023-05-17T08:14:17.813Z,18.85
2023-05-17T08:16:48.289Z,18.79
2023-05-17T08:19:17.126Z,18.56
2023-05-17T08:21:46.318Z,18.66
2023-05-17T08:24:14.322Z,18.42
2023-05-17T08:26:42.063Z,18.24
2023-05-17T08:29:09.628Z,18.08
2023-05-17T08:31:37.225Z,18.15
2023-05-17T08:34:04.829Z,18.21
2023-05-17T08:36:32.315Z,17.88
2023-05-17T08:39:00.048Z,17.75
2023-05-17T08:41:36.141Z,17.64
2023-05-17T08:44:13.068Z,17.66
2023-05-17T08:46:44.100Z,17.56
2023-05-17T08:49:13.027Z,17.62
2023-05-17T08:51:42.312Z,17.90
2023-05-17T08:54:09.888Z,17.47
2023-05-17T08:56:40.429Z,17.52
2023-05-17T08:59:13.600Z,17.59
2023-05-17T09:01:48.977Z,17.50
2023-05-17T09:04:17.872Z,17.07
2023-05-17T09:06:45.766Z,16.76
2023-05-17T09:09:13.919Z,16.65
2023-05-17T09:11:41.748Z,16.61
2023-05-17T09:14:09.617Z,16.63
2023-05-17T09:16:38.463Z,16.64
2023-05-17T09:19:09.147Z,16.67
2023-05-17T09:21:38.144Z,16.81
2023-05-17T09:24:08.403Z,16.89
2023-05-17T09:26:49.740Z,16.85
2023-05-17T09:29:19.972Z,17.09
2023-05-17T09:31:47.540Z,17.18
2023-05-17T09:34:19.711Z,16.99
2023-05-17T09:36:47.644Z,16.94
2023-05-17T09:39:15.945Z,17.05
2023-05-17T09:41:51.233Z,17.11
2023-05-17T09:44:18.872Z,17.24
2023-05-17T09:46:48.544Z,17.23
2023-05-17T09:49:19.127Z,17.43
2023-05-17T09:51:50.035Z,17.37
2023-05-17T09:54:20.611Z,17.04
2023-05-17T09:56:55.716Z,16.98
2023-05-17T09:59:29.130Z,16.94
2023-05-17T10:01:58.499Z,16.91
2023-05-17T10:04:29.519Z,16.81
2023-05-17T10:06:57.628Z,17.00
2023-05-17T10:09:34.485Z,17.04
2023-05-17T10:12:06.079Z,16.97
2023-05-17T10:14:36.906Z,17.06
2023-05-17T10:17:07.428Z,16.95
2023-05-17T10:19:35.098Z,16.99
2023-05-17T10:22:18.916Z,16.98
2023-05-17T10:24:51.743Z,16.89
2023-05-17T10:27:19.795Z,16.90
2023-05-17T10:29:50.401Z,16.97
2023-05-17T10:32:23.326Z,17.12
2023-05-17T10:34:58.110Z,17.06
2023-05-17T10:37:40.325Z,17.05
2023-05-17T10:40:17.624Z,17.05
2023-05-17T10:42:51.980Z,17.70
2023-05-17T10:45:25.610Z,17.40
2023-05-17T10:47:55.058Z,17.76
2023-05-17T10:50:28.203Z,18.09
2023-05-17T10:53:00.776Z,18.07
2023-05-17T10:55:43.978Z,18.04
2023-05-17T10:58:18.330Z,17.73
2023-05-17T11:00:55.164Z,17.55
2023-05-17T11:03:31.932Z,17.77
2023-05-17T11:06:23.344Z,17.81
2023-05-17T11:09:16.555Z,17.59
2023-05-17T11:12:08.282Z,17.42
2023-05-17T11:14:53.518Z,17.39
2023-05-17T11:17:26.436Z,17.35
2023-05-17T11:20:12.386Z,17.33
2023-05-17T11:23:00.721Z,17.40
2023-05-17T11:25:36.122Z,17.24
2023-05-17T11:28:22.401Z,17.14
2023-05-17T11:30:54.200Z,17.16
2023-05-17T11:33:45.148Z,17.22
2023-05-17T11:36:21.472Z,17.29
2023-05-17T11:38:55.279Z,17.35
2023-05-17T11:41:30.122Z,17.26
2023-05-17T11:43:58.058Z,17.24
2023-05-17T11:46:26.075Z,17.16
2023-05-17T11:48:54.830Z,17.05
2023-05-17T11:51:24.606Z,17.41
2023-05-17T11:53:56.017Z,17.25
2023-05-17T11:56:41.982Z,17.20
2023-05-17T11:59:10.983Z,17.20
2023-05-17T12:01:47.282Z,17.29
2023-05-17T12:04:17.336Z,17.18
2023-05-17T12:06:45.701Z,17.14
2023-05-17T12:09:17.814Z,17.17
2023-05-17T12:11:46.338Z,17.14
2023-05-17T12:14:20.621Z,17.33
2023-05-17T12:16:56.272Z,17.47
2023-05-17T12:19:30.050Z,17.34
2023-05-17T12:22:14.732Z,17.21
2023-05-17T12:24:43.851Z,17.26
2023-05-17T12:27:11.935Z,17.38
2023-05-17T12:29:40.247Z,17.32
2023-05-17T12:32:10.218Z,17.19
2023-05-17T12:34:42.555Z,17.34
2023-05-17T12:37:15.118Z,17.38
2023-05-17T12:40:04.392Z,17.46
2023-05-17T12:42:33.480Z,17.98
2023-05-17T12:45:01.420Z,17.99
2023-05-17T12:47:32.770Z,18.41
2023-05-17T12:50:03.556Z,18.56
2023-05-17T12:52:37.436Z,18.26
2023-05-17T12:55:14.163Z,18.03
2023-05-17T12:57:51.047Z,17.98
2023-05-17T13:00:20.135Z,17.76
2023-05-17T13:02:48.553Z,17.84
2023-05-17T13:05:21.824Z,17.83
2023-05-17T13:07:55.770Z,18.06
2023-05-17T13:10:28.200Z,17.77
2023-05-17T13:12:58.229Z,17.71
2023-05-17T13:15:33.453Z,17.74
2023-05-17T13:18:01.535Z,17.68
2023-05-17T13:20:29.418Z,17.78
2023-05-17T13:22:57.152Z,17.54
2023-05-17T13:25:25.652Z,17.43
2023-05-17T13:27:55.569Z,17.31
2023-05-17T13:30:26.148Z,17.02
2023-05-17T13:32:54.839Z,17.12
2023-05-17T13:35:22.928Z,17.44
2023-05-17T13:37:50.595Z,17.21
2023-05-17T13:40:19.515Z,17.27
2023-05-17T13:42:47.428Z,17.15
2023-05-17T13:45:14.964Z,16.98
2023-05-17T13:47:42.654Z,17.00
2023-05-17T13:50:12.118Z,17.56
2023-05-17T13:52:40.965Z,17.22
2023-05-17T13:55:09.220Z,17.03
2023-05-17T13:57:36.672Z,17.02
2023-05-17T14:00:05.781Z,17.61
2023-05-17T14:02:33.978Z,17.86
2023-05-17T14:05:02.263Z,17.41
2023-05-17T14:07:30.155Z,17.06
2023-05-17T14:09:57.729Z,17.22
2023-05-17T14:12:25.267Z,17.18
2023-05-17T14:14:52.930Z,17.03
2023-05-17T14:17:20.453Z,17.25
2023-05-17T14:19:48.189Z,17.12
2023-05-17T14:22:15.921Z,17.95
2023-05-17T14:24:43.465Z,17.76
2023-05-17T14:27:11.674Z,17.95
2023-05-17T14:29:39.243Z,17.78
2023-05-17T14:32:07.305Z,18.05
2023-05-17T14:34:34.881Z,18.07
2023-05-17T14:37:02.378Z,17.99
2023-05-17T14:39:29.956Z,17.64
2023-05-17T14:41:57.425Z,17.54
2023-05-17T14:44:27.625Z,17.06
2023-05-17T14:46:56.369Z,16.84
2023-05-17T14:49:23.913Z,17.25
2023-05-17T14:51:52.433Z,16.99
2023-05-17T14:54:20.632Z,16.91
2023-05-17T14:56:49.205Z,16.94
2023-05-17T14:59:18.612Z,16.92
2023-05-17T15:01:49.916Z,16.93
2023-05-17T15:04:18.500Z,16.92
2023-05-17T15:06:48.799Z,16.92
2023-05-17T15:09:18.996Z,16.87
2023-05-17T15:11:47.217Z,16.90
2023-05-17T15:14:22.933Z,16.91
2023-05-17T15:16:53.103Z,16.97
2023-05-17T15:19:21.554Z,16.99
2023-05-17T15:21:49.694Z,17.00
2023-05-17T15:24:19.655Z,17.04
2023-05-17T15:26:48.342Z,17.08
2023-05-17T15:29:16.397Z,17.11
2023-05-17T15:31:46.515Z,17.07
2023-05-17T15:34:17.776Z,17.11
2023-05-17T15:36:56.205Z,17.10
2023-05-17T15:39:23.994Z,17.14
2023-05-17T15:41:52.588Z,17.05
2023-05-17T15:44:20.305Z,17.04
2023-05-17T15:46:47.898Z,17.00
2023-05-17T15:49:17.776Z,16.95
2023-05-17T15:51:47.740Z,16.98
2023-05-17T15:54:17.108Z,16.99
2023-05-17T15:57:08.548Z,16.96
2023-05-17T15:59:38.147Z,17.09
2023-05-17T16:02:11.007Z,17.16
2023-05-17T16:04:38.913Z,17.25
2023-05-17T16:07:07.123Z,17.26
2023-05-17T16:09:35.550Z,17.20
2023-05-17T16:12:06.006Z,17.57
2023-05-17T16:14:33.849Z,17.59
2023-05-17T16:17:05.860Z,17.89
2023-05-17T16:19:34.423Z,17.56
2023-05-17T16:22:04.468Z,17.54
2023-05-17T16:24:33.874Z,17.24
2023-05-17T16:27:02.477Z,17.13
2023-05-17T16:29:33.254Z,17.01
2023-05-17T16:32:01.089Z,17.02
2023-05-17T16:34:29.367Z,17.34
2023-05-17T16:36:58.421Z,17.14
2023-05-17T16:39:27.234Z,17.12
2023-05-17T16:41:57.397Z,17.23
2023-05-17T16:44:24.942Z,17.23
2023-05-17T16:46:52.460Z,17.12
2023-05-17T16:49:21.907Z,17.21
2023-05-17T16:52:16.081Z,17.35
2023-05-17T16:54:44.280Z,17.04
2023-05-17T16:57:16.079Z,16.91
2023-05-17T16:59:45.372Z,16.84
2023-05-17T17:02:14.481Z,16.85
2023-05-17T17:04:42.884Z,16.83
2023-05-17T17:07:10.498Z,16.81
2023-05-17T17:09:38.389Z,17.14
2023-05-17T17:12:20.123Z,17.25
2023-05-17T17:14:51.165Z,17.09
2023-05-17T17:17:18.658Z,16.89
2023-05-17T17:19:46.406Z,16.76
2023-05-17T17:22:14.796Z,17.02
2023-05-17T17:24:45.467Z,16.84
2023-05-17T17:27:13.088Z,16.73
2023-05-17T17:29:40.655Z,16.65
2023-05-17T17:32:11.973Z,16.66
2023-05-17T17:34:39.668Z,16.58
2023-05-17T17:37:10.099Z,16.50
2023-05-17T17:39:37.637Z,16.54
2023-05-17T17:42:06.010Z,16.54
2023-05-17T17:44:34.904Z,16.57
2023-05-17T17:47:02.524Z,16.61
2023-05-17T17:49:30.311Z,16.66
2023-05-17T17:51:58.296Z,16.73
2023-05-17T17:54:26.070Z,16.76
2023-05-17T17:56:53.647Z,16.72
2023-05-17T17:59:23.183Z,16.72
2023-05-17T18:01:53.508Z,16.72
2023-05-17T18:04:22.387Z,16.87
2023-05-17T18:06:51.245Z,16.80
2023-05-17T18:09:20.577Z,17.03
2023-05-17T18:11:51.488Z,16.96
2023-05-17T18:14:19.950Z,16.83
2023-05-17T18:16:47.818Z,16.75
2023-05-17T18:19:15.699Z,16.78
2023-05-17T18:21:43.897Z,16.83
2023-05-17T18:24:12.523Z,16.76
2023-05-17T18:26:41.068Z,16.79
2023-05-17T18:29:09.528Z,16.81
2023-05-17T18:31:38.485Z,16.82
2023-05-17T18:34:06.170Z,16.81
2023-05-17T18:36:34.773Z,16.76
2023-05-17T18:39:05.755Z,16.76
2023-05-17T18:41:34.739Z,16.80
2023-05-17T18:44:02.979Z,16.77
2023-05-17T18:46:30.790Z,16.71
2023-05-17T18:48:58.627Z,16.70
2023-05-17T18:51:26.296Z,16.73
2023-05-17T18:53:53.957Z,16.75
2023-05-17T18:56:25.903Z,16.82
2023-05-17T18:58:53.838Z,16.80
2023-05-17T19:01:22.158Z,16.81
2023-05-17T19:03:55.048Z,16.79
2023-05-17T19:06:30.132Z,16.78
2023-05-17T19:09:00.170Z,16.78
2023-05-17T19:11:31.320Z,16.78
2023-05-17T19:14:19.298Z,16.75
2023-05-17T19:16:51.902Z,16.75
2023-05-17T19:19:22.311Z,16.77
2023-05-17T19:21:55.468Z,16.76
2023-05-17T19:24:23.369Z,16.75
2023-05-17T19:26:51.019Z,17.51
2023-05-17T19:29:21.304Z,17.89
2023-05-17T19:31:50.265Z,17.50
2023-05-17T19:34:17.873Z,17.18
2023-05-17T19:36:47.207Z,16.96
2023-05-17T19:39:21.050Z,16.82
2023-05-17T19:41:49.014Z,16.78
2023-05-17T19:44:19.200Z,16.90
2023-05-17T19:46:50.972Z,16.78
2023-05-17T19:49:18.973Z,16.73
2023-05-17T19:51:50.685Z,16.75
2023-05-17T19:54:21.902Z,16.67
2023-05-17T19:56:50.436Z,16.60
2023-05-17T19:59:26.883Z,16.49
2023-05-17T20:01:57.166Z,16.38
2023-05-17T20:04:27.227Z,16.28
2023-05-17T20:06:56.660Z,16.22
2023-05-17T20:09:28.034Z,16.14
2023-05-17T20:11:58.791Z,16.03
2023-05-17T20:14:29.187Z,16.04
2023-05-17T20:17:00.171Z,15.99
2023-05-17T20:19:29.210Z,15.91
2023-05-17T20:21:59.830Z,15.88
2023-05-17T20:24:32.447Z,15.95
2023-05-17T20:27:01.882Z,15.99
2023-05-17T20:29:33.256Z,15.93
2023-05-17T20:32:02.010Z,15.94
2023-05-17T20:34:39.241Z,15.84
2023-05-17T20:37:09.500Z,15.83
2023-05-17T20:39:37.616Z,15.80
2023-05-17T20:42:06.678Z,15.77
2023-05-17T20:44:36.263Z,15.72
2023-05-17T20:47:08.112Z,15.82
2023-05-17T20:49:35.879Z,15.69
2023-05-17T20:52:04.629Z,15.61
2023-05-17T20:54:35.029Z,15.74
2023-05-17T20:57:04.212Z,15.64
2023-05-17T20:59:33.682Z,15.52
2023-05-17T21:02:04.402Z,15.46
2023-05-17T21:04:32.030Z,15.42
2023-05-17T21:06:59.650Z,15.41
2023-05-17T21:09:27.735Z,15.42
2023-05-17T21:11:55.857Z,15.41
2023-05-17T21:14:23.464Z,15.36
2023-05-17T21:16:51.113Z,15.38
2023-05-17T21:19:18.721Z,15.43
2023-05-17T21:21:46.701Z,15.45
2023-05-17T21:24:15.576Z,15.43
2023-05-17T21:26:43.103Z,15.49
2023-05-17T21:29:10.657Z,15.46
2023-05-17T21:31:38.523Z,15.46
2023-05-17T21:34:07.480Z,15.46
2023-05-17T21:36:36.103Z,15.49
2023-05-17T21:39:04.248Z,15.48
2023-05-17T21:41:32.120Z,15.45
2023-05-17T21:44:00.042Z,15.45
2023-05-17T21:46:27.988Z,15.47
2023-05-17T21:48:55.726Z,15.50
2023-05-17T21:51:23.364Z,15.58
2023-05-17T21:53:51.015Z,15.59
2023-05-17T21:56:18.673Z,15.58
2023-05-17T21:58:46.328Z,15.54
2023-05-17T22:01:14.076Z,15.45
2023-05-17T22:03:41.691Z,15.45
2023-05-17T22:06:09.415Z,15.40
2023-05-17T22:08:36.904Z,15.35
2023-05-17T22:11:05.694Z,15.23
2023-05-17T22:13:33.302Z,15.27
2023-05-17T22:16:02.030Z,15.27
2023-05-17T22:18:31.964Z,15.32
2023-05-17T22:21:02.511Z,15.34
2023-05-17T22:23:30.132Z,15.36
2023-05-17T22:26:00.350Z,15.35
2023-05-17T22:28:28.842Z,15.35
2023-05-17T22:30:56.404Z,15.38
2023-05-17T22:33:23.958Z,15.35
2023-05-17T22:35:53.711Z,15.33
2023-05-17T22:38:23.384Z,15.31
2023-05-17T22:40:51.095Z,15.25
2023-05-17T22:43:21.506Z,15.25
2023-05-17T22:45:50.693Z,15.29
2023-05-17T22:48:20.022Z,15.22
2023-05-17T22:50:47.975Z,15.36
2023-05-17T22:53:17.592Z,15.37
2023-05-17T22:55:48.762Z,15.36
2023-05-17T22:58:16.609Z,15.34
2023-05-17T23:00:44.510Z,15.32
2023-05-17T23:03:12.826Z,15.41
2023-05-17T23:05:40.405Z,15.17
2023-05-17T23:08:08.092Z,15.07
2023-05-17T23:10:35.806Z,15.08
2023-05-17T23:13:04.223Z,15.11
2023-05-17T23:15:34.287Z,15.08
2023-05-17T23:18:01.954Z,15.02
2023-05-17T23:20:31.261Z,15.02
2023-05-17T23:22:59.672Z,15.04
2023-05-17T23:25:29.011Z,15.07
2023-05-17T23:27:59.464Z,15.05
2023-05-17T23:30:27.913Z,15.15
2023-05-17T23:32:55.503Z,15.05
2023-05-17T23:35:26.466Z,15.07
2023-05-17T23:37:54.021Z,15.13
2023-05-17T23:40:21.721Z,15.10
2023-05-17T23:42:49.304Z,15.07
2023-05-17T23:45:16.817Z,15.06
2023-05-17T23:47:44.470Z,15.05
2023-05-17T23:50:12.264Z,15.04
2023-05-17T23:52:40.003Z,14.91
2023-05-17T23:55:08.348Z,14.85
2023-05-17T23:57:36.668Z,14.94
